Orakai — ZDNX7 — position and weather

sailwx.info

Track history (hours):
 
Tides and Currents Weather Stations Pressure Air Temp Water Temp Dewpoint Dewpoint Depression Visibility Wind Speed Wind Dir Waves Ship Positions

Orakai

Last reported at 2017-Nov-19 08:30 UTC. Time now 2017-Nov-19 09:01 UTC.
Position N 54°19' E 009°43'.

Length 103 m; draft 5.1 m.

Type: Ship. MMSI: 236646000.

Date/timePositionNaut miles runAvg speedWind from/ knotsBaromVisibWave heightAir tempDewpointWater temp
2017-Nov-19 08:30N 54°19' E 009°43'4 7.8
2017-Nov-19 08:00N 54°16' E 009°38'4 7.6
2017-Nov-19 07:30N 54°13' E 009°35'4 8.1
2017-Nov-19 07:00N 54°11' E 009°29'4 8.2
2017-Nov-19 06:30N 54°09' E 009°22'3 6.3
2017-Nov-19 05:58N 54°06' E 009°20'4 8.2
2017-Nov-19 05:30N 54°02' E 009°18'4 7.6
2017-Nov-19 05:00N 53°59' E 009°16'4 7.5
2017-Nov-19 04:31N 53°56' E 009°12'3 6.4
2017-Nov-19 04:00N 53°54' E 009°09'0 0.0
2017-Nov-19 03:30N 53°54' E 009°09'0 0.5
2017-Nov-19 03:00N 53°53' E 009°08'2 3.7
2017-Nov-19 02:30N 53°53' E 009°05'0 0.4
2017-Nov-19 02:01N 53°53' E 009°05'0 0.5
2017-Nov-19 01:30N 53°53' E 009°05'510.0
2017-Nov-19 01:00N 53°51' E 008°58'714.4
2017-Nov-19 00:30N 53°51' E 008°46'713.8
2017-Nov-19 00:00N 53°57' E 008°38'713.4
2017-Nov-18 23:30N 53°59' E 008°28'713.5
2017-Nov-18 23:00N 53°59' E 008°16'713.2
2017-Nov-18 22:30N 53°60' E 008°05'913.7
2017-Nov-18 21:51N 54°04' E 007°51'192 9.3
2017-Nov-18 01:19N 52°07' E 003°38'411.6
2017-Nov-18 01:00N 52°05' E 003°43'611.5
2017-Nov-18 00:31N 52°03' E 003°52'4 8.6
2017-Nov-18 00:00N 52°01' E 003°59'713.2
2017-Nov-17 23:30N 51°58' E 004°08'713.5
2017-Nov-17 23:00N 51°54' E 004°17'3 5.4
2017-Nov-17 22:29N 51°54' E 004°21'0 0.0
2017-Nov-17 21:59N 51°54' E 004°21'0 0.0
2017-Nov-17 21:23N 51°54' E 004°21'0 0.0
2017-Nov-17 20:59N 51°54' E 004°21'0 0.0
2017-Nov-17 20:29N 51°54' E 004°21'0 0.0
2017-Nov-17 19:59N 51°54' E 004°21'0 0.0
2017-Nov-17 19:29N 51°54' E 004°21'0 0.1
2017-Nov-17 18:59N 51°54' E 004°21'0 0.0
2017-Nov-17 18:29N 51°54' E 004°21'0 0.0
2017-Nov-17 17:58N 51°54' E 004°21'0 0.0
2017-Nov-17 17:29N 51°54' E 004°21'0 0.0
2017-Nov-17 16:59N 51°54' E 004°21'0 0.0
2017-Nov-17 16:29N 51°54' E 004°21'0 0.0
2017-Nov-17 15:59N 51°54' E 004°21'0 0.0
2017-Nov-17 15:28N 51°54' E 004°21'0 0.0
2017-Nov-17 14:56N 51°54' E 004°21'0 0.0
2017-Nov-17 14:29N 51°54' E 004°21'0 0.0
2017-Nov-17 13:59N 51°54' E 004°21'0 0.0
2017-Nov-17 13:28N 51°54' E 004°21'0 0.0
2017-Nov-17 12:58N 51°54' E 004°21'0 0.0
2017-Nov-17 12:28N 51°54' E 004°21'0 0.0
2017-Nov-17 11:58N 51°54' E 004°21'0 0.1
2017-Nov-17 11:30N 51°54' E 004°21'0 0.1
2017-Nov-17 10:57N 51°54' E 004°21'0 0.0
2017-Nov-17 10:30N 51°54' E 004°21'0 0.0
2017-Nov-17 10:00N 51°54' E 004°21'0 0.0
2017-Nov-17 09:30N 51°54' E 004°21'0 0.0
2017-Nov-17 09:00N 51°54' E 004°21'0 0.0
2017-Nov-17 08:27N 51°54' E 004°21'0 0.0
2017-Nov-17 08:00N 51°54' E 004°21'0 0.0
2017-Nov-17 07:27N 51°54' E 004°21'0 0.0
2017-Nov-17 07:00N 51°54' E 004°21'0 0.0
2017-Nov-17 06:30N 51°54' E 004°21'0 0.0
2017-Nov-17 05:57N 51°54' E 004°21'0 0.0
2017-Nov-17 05:30N 51°54' E 004°21'0 0.0
2017-Nov-17 04:57N 51°54' E 004°21'0 0.0
2017-Nov-17 04:24N 51°54' E 004°21'0 0.0
2017-Nov-17 04:00N 51°54' E 004°21'0 0.0
2017-Nov-17 03:30N 51°54' E 004°21'0 0.0
2017-Nov-17 03:00N 51°54' E 004°21'0 0.0
2017-Nov-17 02:30N 51°54' E 004°21'0 0.0
2017-Nov-17 01:54N 51°54' E 004°21'0 0.0
2017-Nov-17 01:30N 51°54' E 004°21'0 0.0
2017-Nov-17 01:00N 51°54' E 004°21'0 0.0
2017-Nov-17 00:30N 51°54' E 004°21'0 0.0
2017-Nov-17 00:00N 51°54' E 004°21'0 0.0
2017-Nov-16 23:30N 51°54' E 004°21'0 0.0
2017-Nov-16 23:00N 51°54' E 004°21'0 0.0
2017-Nov-16 22:30N 51°54' E 004°21'0 0.0
2017-Nov-16 22:00N 51°54' E 004°21'0 0.0
2017-Nov-16 21:27N 51°54' E 004°21'0 0.0
2017-Nov-16 20:57N 51°54' E 004°21'0 0.0
2017-Nov-16 20:30N 51°54' E 004°21'0 0.0
2017-Nov-16 20:00N 51°54' E 004°21'0 0.0
2017-Nov-16 19:30N 51°54' E 004°21'0 0.0
2017-Nov-16 19:00N 51°54' E 004°21'0 0.0
2017-Nov-16 18:30N 51°54' E 004°21'0 0.1
2017-Nov-16 18:00N 51°54' E 004°21'0 0.1
2017-Nov-16 17:30N 51°54' E 004°21'3 6.2
2017-Nov-16 17:00N 51°54' E 004°16'5 9.6
2017-Nov-16 16:30N 51°57' E 004°10'510.3
2017-Nov-16 16:00N 51°59' E 004°03'612.3
2017-Nov-16 15:30N 52°00' E 003°53'712.7
2017-Nov-16 14:58N 51°59' E 003°42'710.8
2017-Nov-16 14:20N 51°57' E 003°31'712.9
2017-Nov-16 13:47N 51°55' E 003°20'413.9
2017-Nov-16 13:28N 51°53' E 003°13'814.0
2017-Nov-16 12:55N 51°51' E 003°01'2113.9
2017-Nov-16 11:23N 51°41' E 002°31'514.7
2017-Nov-16 11:00N 51°37' E 002°26'714.5
2017-Nov-16 10:30N 51°31' E 002°18'714.2
2017-Nov-16 10:00N 51°26' E 002°11'713.2
2017-Nov-16 09:30N 51°20' E 002°07'612.9
2017-Nov-16 09:00N 51°14' E 002°03'713.4
2017-Nov-16 08:30N 51°11' E 001°54'612.6
2017-Nov-16 08:00N 51°07' E 001°46'612.2
2017-Nov-16 07:30N 51°02' E 001°39'611.1
2017-Nov-16 07:00N 50°60' E 001°31'510.7
2017-Nov-16 06:30N 50°56' E 001°26'5910.2
2017-Nov-16 00:45N 50°23' E 000°09'311.5
2017-Nov-16 00:28N 50°22' E 000°04'611.6
2017-Nov-15 23:59N 50°21' W 000°04'611.6
2017-Nov-15 23:28N 50°19' W 000°13'3412.3
2017-Nov-15 20:44N 50°10' W 001°04'314.1
2017-Nov-15 20:30N 50°10' W 001°09'714.5
2017-Nov-15 20:00N 50°08' W 001°20'815.1
2017-Nov-15 19:31N 50°06' W 001°31'815.5
2017-Nov-15 19:00N 50°03' W 001°43'815.8
2017-Nov-15 18:30N 50°01' W 001°55'3215.4
2017-Nov-15 16:24N 49°53' W 002°43'614.4
2017-Nov-15 15:58N 49°52' W 002°53'714.0
2017-Nov-15 15:30N 49°52' W 003°03'2113.7
2017-Nov-15 13:58N 49°51' W 003°35'613.3
2017-Nov-15 13:30N 49°51' W 003°45'147 8.9
2017-Nov-14 21:01N 51°55' W 005°50'312.9
2017-Nov-14 20:46N 51°58' W 005°48'312.7
2017-Nov-14 20:31N 52°01' W 005°46'712.4
2017-Nov-14 19:58N 52°08' W 005°43'611.8
2017-Nov-14 19:30N 52°13' W 005°39'611.3
2017-Nov-14 19:00N 52°18' W 005°36'710.8
2017-Nov-14 18:24N 52°24' W 005°32'410.6
2017-Nov-14 18:00N 52°28' W 005°30'8311.1
2017-Nov-14 10:29N 53°33' W 004°03'713.3
2017-Nov-14 09:58N 53°33' W 003°52'612.9
2017-Nov-14 09:30N 53°33' W 003°41'612.6
2017-Nov-14 09:00N 53°33' W 003°31'612.1
2017-Nov-14 08:30N 53°32' W 003°21'510.1
2017-Nov-14 08:00N 53°31' W 003°12'5 9.9
2017-Nov-14 07:30N 53°29' W 003°05'5 9.5
2017-Nov-14 07:00N 53°25' W 003°01'1 1.8
2017-Nov-14 06:30N 53°24' W 003°01'0 0.0
2017-Nov-14 06:00N 53°24' W 003°01'0 0.0
2017-Nov-14 05:30N 53°24' W 003°01'0 0.0
2017-Nov-14 05:00N 53°24' W 003°01'0 0.4
2017-Nov-14 04:30N 53°24' W 003°02'1 2.0
2017-Nov-14 04:00N 53°25' W 003°03'0 0.0
2017-Nov-14 03:28N 53°25' W 003°03'0 0.0
2017-Nov-14 02:58N 53°25' W 003°03'0 0.0
2017-Nov-14 02:28N 53°25' W 003°03'0 0.0
2017-Nov-14 01:58N 53°25' W 003°03'0 0.0
2017-Nov-14 01:28N 53°25' W 003°03'0 0.0
2017-Nov-14 00:58N 53°25' W 003°03'0 0.0
2017-Nov-14 00:28N 53°25' W 003°03'0 0.0
2017-Nov-13 23:58N 53°25' W 003°03'0 0.0
2017-Nov-13 23:28N 53°25' W 003°03'0 0.0
2017-Nov-13 22:52N 53°25' W 003°03'0 0.0
2017-Nov-13 22:25N 53°25' W 003°03'0 0.1
2017-Nov-13 21:58N 53°25' W 003°03'0 0.0
2017-Nov-13 01:58N 53°25' W 003°03'0 0.0
2017-Nov-13 01:28N 53°25' W 003°03'0 0.0
2017-Nov-13 00:58N 53°25' W 003°03'0 0.0
2017-Nov-13 00:28N 53°25' W 003°03'0 0.0
2017-Nov-12 23:58N 53°25' W 003°03'0 0.0
2017-Nov-12 23:28N 53°25' W 003°03'0 0.0
2017-Nov-12 22:58N 53°25' W 003°03'0 0.0
2017-Nov-12 22:28N 53°25' W 003°03'0 0.0
2017-Nov-12 21:58N 53°25' W 003°03'0 0.0
2017-Nov-12 21:28N 53°25' W 003°03'0 0.0
2017-Nov-12 20:58N 53°25' W 003°03'0 0.0
2017-Nov-12 20:28N 53°25' W 003°03'0 0.3
2017-Nov-12 20:00N 53°24' W 003°03'1 1.8
2017-Nov-12 19:30N 53°24' W 003°01'0 0.4
2017-Nov-12 19:00N 53°24' W 003°01'0 0.0
2017-Nov-12 18:30N 53°24' W 003°01'0 0.0
2017-Nov-12 18:00N 53°24' W 003°01'0 0.5
2017-Nov-12 17:30N 53°24' W 003°01'1 1.2
2017-Nov-12 17:00N 53°25' W 003°01'3 6.2
2017-Nov-12 16:30N 53°28' W 003°03'4 7.7
2017-Nov-12 16:01N 53°31' W 003°07'4 7.7
2017-Nov-12 15:30N 53°31' W 003°13'5 9.3
2017-Nov-12 15:00N 53°31' W 003°21'510.4
2017-Nov-12 14:30N 53°31' W 003°30'510.6
2017-Nov-12 14:00N 53°31' W 003°38'612.6
2017-Nov-12 13:30N 53°32' W 003°49'510.6
2017-Nov-12 13:00N 53°33' W 003°58'40 9.6
2017-Nov-12 08:48N 54°11' W 004°19'2 3.2
2017-Nov-12 08:19N 54°12' W 004°17'2 2.9
2017-Nov-12 07:38N 54°13' W 004°15'1 2.6
2017-Nov-12 07:25N 54°14' W 004°14'1 0.8
2017-Nov-12 06:33N 54°14' W 004°14'1 1.8
2017-Nov-12 06:15N 54°14' W 004°14'0 1.6
2017-Nov-12 05:58N 54°13' W 004°14'1 1.9
2017-Nov-12 05:26N 54°13' W 004°15'1 1.9
2017-Nov-12 04:58N 54°12' W 004°16'4 2.8
2017-Nov-12 03:28N 54°08' W 004°19'8 4.0
2017-Nov-12 01:32N 54°02' W 004°27'0 6.3
2017-Nov-12 01:30N 54°02' W 004°27'26 1.7
2017-Nov-11 10:30N 54°07' W 005°10'4 7.7
2017-Nov-11 10:00N 54°11' W 005°08'4 7.6
2017-Nov-11 09:30N 54°15' W 005°06'4 7.6
2017-Nov-11 09:00N 54°18' W 005°04'4 8.0
2017-Nov-11 08:30N 54°22' W 005°02'612.3
2017-Nov-11 08:00N 54°28' W 005°05'612.5
2017-Nov-11 07:31N 54°33' W 005°11'612.2
2017-Nov-11 07:00N 54°38' W 005°17'612.0
2017-Nov-11 06:31N 54°43' W 005°23'611.4
2017-Nov-11 06:00N 54°45' W 005°32'713.1
2017-Nov-11 05:30N 54°42' W 005°42'612.3
2017-Nov-11 05:00N 54°39' W 005°52'3 5.1
2017-Nov-11 04:26N 54°37' W 005°55'0 0.0
2017-Nov-10 22:19N 54°37' W 005°55'0 0.0
2017-Nov-10 20:44N 54°37' W 005°55'0 0.1
2017-Nov-10 20:29N 54°37' W 005°55'1 1.9
2017-Nov-10 19:59N 54°37' W 005°54'3 5.3
2017-Nov-10 19:30N 54°39' W 005°51'510.0
2017-Nov-10 19:01N 54°42' W 005°44'3 6.9
2017-Nov-10 18:30N 54°44' W 005°39'2 4.9
2017-Nov-10 18:00N 54°46' W 005°38'2 3.7
2017-Nov-10 17:31N 54°48' W 005°37'3 2.0
2017-Nov-10 15:54N 54°45' W 005°36'1 1.3
2017-Nov-10 15:20N 54°44' W 005°37'1 1.3
2017-Nov-10 14:50N 54°43' W 005°37'1 3.9
2017-Nov-10 14:30N 54°44' W 005°35'510.8
2017-Nov-10 14:00N 54°46' W 005°26'510.1
2017-Nov-10 13:30N 54°42' W 005°21'510.4
2017-Nov-10 13:00N 54°38' W 005°15'510.5
2017-Nov-10 12:30N 54°33' W 005°10'5 9.7
2017-Nov-10 12:00N 54°29' W 005°06'510.7
2017-Nov-10 11:30N 54°24' W 005°08'611.1
2017-Nov-10 11:00N 54°18' W 005°09'611.5
2017-Nov-10 10:30N 54°12' W 005°11'16312.7
2017-Nov-09 21:36N 51°31' W 005°53'113.6
2017-Nov-09 21:30N 51°30' W 005°53'4813.1
2017-Nov-09 17:51N 50°42' W 005°55'613.0
2017-Nov-09 17:21N 50°35' W 005°56'812.8
2017-Nov-09 16:43N 50°27' W 005°57'312.1
2017-Nov-09 16:27N 50°24' W 005°56'512.0
2017-Nov-09 15:59N 50°19' W 005°55'612.7
2017-Nov-09 15:30N 50°12' W 005°55'1312.5
2017-Nov-09 14:27N 49°59' W 005°55'1212.3
2017-Nov-09 13:27N 49°56' W 005°36'1813.0
2017-Nov-09 12:05N 49°54' W 005°09'313.0
2017-Nov-09 11:50N 49°54' W 005°04'412.9
2017-Nov-09 11:30N 49°55' W 004°57'712.7
2017-Nov-09 10:57N 49°55' W 004°46'1012.4
2017-Nov-09 10:10N 49°56' W 004°31'212.2
2017-Nov-09 10:00N 49°56' W 004°28'811.7
2017-Nov-09 09:18N 49°57' W 004°15'411.7
2017-Nov-09 08:56N 49°57' W 004°09'  
Track history (hours):
 
Tides and Currents Weather Stations Pressure Air Temp Water Temp Dewpoint Dewpoint Depression Visibility Wind Speed Wind Dir Waves Ship Positions

Orakai

Last reported at 2017-Nov-19 08:30 UTC. Time now 2017-Nov-19 09:01 UTC.
Position N 54°19' E 009°43'.

Length 103 m; draft 5.1 m.

Type: Ship. MMSI: 236646000.

Date/timePositionNaut miles runAvg speedWind from/ knotsBaromVisibWave heightAir tempDewpointWater temp
2017-Nov-19 08:30N 54°19' E 009°43'4 7.8
2017-Nov-19 08:00N 54°16' E 009°38'4 7.6
2017-Nov-19 07:30N 54°13' E 009°35'4 8.1
2017-Nov-19 07:00N 54°11' E 009°29'4 8.2
2017-Nov-19 06:30N 54°09' E 009°22'3 6.3
2017-Nov-19 05:58N 54°06' E 009°20'4 8.2
2017-Nov-19 05:30N 54°02' E 009°18'4 7.6
2017-Nov-19 05:00N 53°59' E 009°16'4 7.5
2017-Nov-19 04:31N 53°56' E 009°12'3 6.4
2017-Nov-19 04:00N 53°54' E 009°09'0 0.0
2017-Nov-19 03:30N 53°54' E 009°09'0 0.5
2017-Nov-19 03:00N 53°53' E 009°08'2 3.7
2017-Nov-19 02:30N 53°53' E 009°05'0 0.4
2017-Nov-19 02:01N 53°53' E 009°05'0 0.5
2017-Nov-19 01:30N 53°53' E 009°05'510.0
2017-Nov-19 01:00N 53°51' E 008°58'714.4
2017-Nov-19 00:30N 53°51' E 008°46'713.8
2017-Nov-19 00:00N 53°57' E 008°38'713.4
2017-Nov-18 23:30N 53°59' E 008°28'713.5
2017-Nov-18 23:00N 53°59' E 008°16'713.2
2017-Nov-18 22:30N 53°60' E 008°05'913.7
2017-Nov-18 21:51N 54°04' E 007°51'192 9.3
2017-Nov-18 01:19N 52°07' E 003°38'411.6
2017-Nov-18 01:00N 52°05' E 003°43'611.5
2017-Nov-18 00:31N 52°03' E 003°52'4 8.6
2017-Nov-18 00:00N 52°01' E 003°59'713.2
2017-Nov-17 23:30N 51°58' E 004°08'713.5
2017-Nov-17 23:00N 51°54' E 004°17'3 5.4
2017-Nov-17 22:29N 51°54' E 004°21'0 0.0
2017-Nov-17 21:59N 51°54' E 004°21'0 0.0
2017-Nov-17 21:23N 51°54' E 004°21'0 0.0
2017-Nov-17 20:59N 51°54' E 004°21'0 0.0
2017-Nov-17 20:29N 51°54' E 004°21'0 0.0
2017-Nov-17 19:59N 51°54' E 004°21'0 0.0
2017-Nov-17 19:29N 51°54' E 004°21'0 0.1
2017-Nov-17 18:59N 51°54' E 004°21'0 0.0
2017-Nov-17 18:29N 51°54' E 004°21'0 0.0
2017-Nov-17 17:58N 51°54' E 004°21'0 0.0
2017-Nov-17 17:29N 51°54' E 004°21'0 0.0
2017-Nov-17 16:59N 51°54' E 004°21'0 0.0
2017-Nov-17 16:29N 51°54' E 004°21'0 0.0
2017-Nov-17 15:59N 51°54' E 004°21'0 0.0
2017-Nov-17 15:28N 51°54' E 004°21'0 0.0
2017-Nov-17 14:56N 51°54' E 004°21'0 0.0
2017-Nov-17 14:29N 51°54' E 004°21'0 0.0
2017-Nov-17 13:59N 51°54' E 004°21'0 0.0
2017-Nov-17 13:28N 51°54' E 004°21'0 0.0
2017-Nov-17 12:58N 51°54' E 004°21'0 0.0
2017-Nov-17 12:28N 51°54' E 004°21'0 0.0
2017-Nov-17 11:58N 51°54' E 004°21'0 0.1
2017-Nov-17 11:30N 51°54' E 004°21'0 0.1
2017-Nov-17 10:57N 51°54' E 004°21'0 0.0
2017-Nov-17 10:30N 51°54' E 004°21'0 0.0
2017-Nov-17 10:00N 51°54' E 004°21'0 0.0
2017-Nov-17 09:30N 51°54' E 004°21'0 0.0
2017-Nov-17 09:00N 51°54' E 004°21'0 0.0
2017-Nov-17 08:27N 51°54' E 004°21'0 0.0
2017-Nov-17 08:00N 51°54' E 004°21'0 0.0
2017-Nov-17 07:27N 51°54' E 004°21'0 0.0
2017-Nov-17 07:00N 51°54' E 004°21'0 0.0
2017-Nov-17 06:30N 51°54' E 004°21'0 0.0
2017-Nov-17 05:57N 51°54' E 004°21'0 0.0
2017-Nov-17 05:30N 51°54' E 004°21'0 0.0
2017-Nov-17 04:57N 51°54' E 004°21'0 0.0
2017-Nov-17 04:24N 51°54' E 004°21'0 0.0
2017-Nov-17 04:00N 51°54' E 004°21'0 0.0
2017-Nov-17 03:30N 51°54' E 004°21'0 0.0
2017-Nov-17 03:00N 51°54' E 004°21'0 0.0
2017-Nov-17 02:30N 51°54' E 004°21'0 0.0
2017-Nov-17 01:54N 51°54' E 004°21'0 0.0
2017-Nov-17 01:30N 51°54' E 004°21'0 0.0
2017-Nov-17 01:00N 51°54' E 004°21'0 0.0
2017-Nov-17 00:30N 51°54' E 004°21'0 0.0
2017-Nov-17 00:00N 51°54' E 004°21'0 0.0
2017-Nov-16 23:30N 51°54' E 004°21'0 0.0
2017-Nov-16 23:00N 51°54' E 004°21'0 0.0
2017-Nov-16 22:30N 51°54' E 004°21'0 0.0
2017-Nov-16 22:00N 51°54' E 004°21'0 0.0
2017-Nov-16 21:27N 51°54' E 004°21'0 0.0
2017-Nov-16 20:57N 51°54' E 004°21'0 0.0
2017-Nov-16 20:30N 51°54' E 004°21'0 0.0
2017-Nov-16 20:00N 51°54' E 004°21'0 0.0
2017-Nov-16 19:30N 51°54' E 004°21'0 0.0
2017-Nov-16 19:00N 51°54' E 004°21'0 0.0
2017-Nov-16 18:30N 51°54' E 004°21'0 0.1
2017-Nov-16 18:00N 51°54' E 004°21'0 0.1
2017-Nov-16 17:30N 51°54' E 004°21'3 6.2
2017-Nov-16 17:00N 51°54' E 004°16'5 9.6
2017-Nov-16 16:30N 51°57' E 004°10'510.3
2017-Nov-16 16:00N 51°59' E 004°03'612.3
2017-Nov-16 15:30N 52°00' E 003°53'712.7
2017-Nov-16 14:58N 51°59' E 003°42'710.8
2017-Nov-16 14:20N 51°57' E 003°31'712.9
2017-Nov-16 13:47N 51°55' E 003°20'413.9
2017-Nov-16 13:28N 51°53' E 003°13'814.0
2017-Nov-16 12:55N 51°51' E 003°01'2113.9
2017-Nov-16 11:23N 51°41' E 002°31'514.7
2017-Nov-16 11:00N 51°37' E 002°26'714.5
2017-Nov-16 10:30N 51°31' E 002°18'714.2
2017-Nov-16 10:00N 51°26' E 002°11'713.2
2017-Nov-16 09:30N 51°20' E 002°07'612.9
2017-Nov-16 09:00N 51°14' E 002°03'713.4
2017-Nov-16 08:30N 51°11' E 001°54'612.6
2017-Nov-16 08:00N 51°07' E 001°46'612.2
2017-Nov-16 07:30N 51°02' E 001°39'611.1
2017-Nov-16 07:00N 50°60' E 001°31'510.7
2017-Nov-16 06:30N 50°56' E 001°26'5910.2
2017-Nov-16 00:45N 50°23' E 000°09'311.5
2017-Nov-16 00:28N 50°22' E 000°04'611.6
2017-Nov-15 23:59N 50°21' W 000°04'611.6
2017-Nov-15 23:28N 50°19' W 000°13'3412.3
2017-Nov-15 20:44N 50°10' W 001°04'314.1
2017-Nov-15 20:30N 50°10' W 001°09'714.5
2017-Nov-15 20:00N 50°08' W 001°20'815.1
2017-Nov-15 19:31N 50°06' W 001°31'815.5
2017-Nov-15 19:00N 50°03' W 001°43'815.8
2017-Nov-15 18:30N 50°01' W 001°55'3215.4
2017-Nov-15 16:24N 49°53' W 002°43'614.4
2017-Nov-15 15:58N 49°52' W 002°53'714.0
2017-Nov-15 15:30N 49°52' W 003°03'2113.7
2017-Nov-15 13:58N 49°51' W 003°35'613.3
2017-Nov-15 13:30N 49°51' W 003°45'147 8.9
2017-Nov-14 21:01N 51°55' W 005°50'312.9
2017-Nov-14 20:46N 51°58' W 005°48'312.7
2017-Nov-14 20:31N 52°01' W 005°46'712.4
2017-Nov-14 19:58N 52°08' W 005°43'611.8
2017-Nov-14 19:30N 52°13' W 005°39'611.3
2017-Nov-14 19:00N 52°18' W 005°36'710.8
2017-Nov-14 18:24N 52°24' W 005°32'410.6
2017-Nov-14 18:00N 52°28' W 005°30'8311.1
2017-Nov-14 10:29N 53°33' W 004°03'713.3
2017-Nov-14 09:58N 53°33' W 003°52'612.9
2017-Nov-14 09:30N 53°33' W 003°41'612.6
2017-Nov-14 09:00N 53°33' W 003°31'612.1
2017-Nov-14 08:30N 53°32' W 003°21'510.1
2017-Nov-14 08:00N 53°31' W 003°12'5 9.9
2017-Nov-14 07:30N 53°29' W 003°05'5 9.5
2017-Nov-14 07:00N 53°25' W 003°01'1 1.8
2017-Nov-14 06:30N 53°24' W 003°01'0 0.0
2017-Nov-14 06:00N 53°24' W 003°01'0 0.0
2017-Nov-14 05:30N 53°24' W 003°01'0 0.0
2017-Nov-14 05:00N 53°24' W 003°01'0 0.4
2017-Nov-14 04:30N 53°24' W 003°02'1 2.0
2017-Nov-14 04:00N 53°25' W 003°03'0 0.0
2017-Nov-14 03:28N 53°25' W 003°03'0 0.0
2017-Nov-14 02:58N 53°25' W 003°03'0 0.0
2017-Nov-14 02:28N 53°25' W 003°03'0 0.0
2017-Nov-14 01:58N 53°25' W 003°03'0 0.0
2017-Nov-14 01:28N 53°25' W 003°03'0 0.0
2017-Nov-14 00:58N 53°25' W 003°03'0 0.0
2017-Nov-14 00:28N 53°25' W 003°03'0 0.0
2017-Nov-13 23:58N 53°25' W 003°03'0 0.0
2017-Nov-13 23:28N 53°25' W 003°03'0 0.0
2017-Nov-13 22:52N 53°25' W 003°03'0 0.0
2017-Nov-13 22:25N 53°25' W 003°03'0 0.1
2017-Nov-13 21:58N 53°25' W 003°03'0 0.0
2017-Nov-13 01:58N 53°25' W 003°03'0 0.0
2017-Nov-13 01:28N 53°25' W 003°03'0 0.0
2017-Nov-13 00:58N 53°25' W 003°03'0 0.0
2017-Nov-13 00:28N 53°25' W 003°03'0 0.0
2017-Nov-12 23:58N 53°25' W 003°03'0 0.0
2017-Nov-12 23:28N 53°25' W 003°03'0 0.0
2017-Nov-12 22:58N 53°25' W 003°03'0 0.0
2017-Nov-12 22:28N 53°25' W 003°03'0 0.0
2017-Nov-12 21:58N 53°25' W 003°03'0 0.0
2017-Nov-12 21:28N 53°25' W 003°03'0 0.0
2017-Nov-12 20:58N 53°25' W 003°03'0 0.0
2017-Nov-12 20:28N 53°25' W 003°03'0 0.3
2017-Nov-12 20:00N 53°24' W 003°03'1 1.8
2017-Nov-12 19:30N 53°24' W 003°01'0 0.4
2017-Nov-12 19:00N 53°24' W 003°01'0 0.0
2017-Nov-12 18:30N 53°24' W 003°01'0 0.0
2017-Nov-12 18:00N 53°24' W 003°01'0 0.5
2017-Nov-12 17:30N 53°24' W 003°01'1 1.2
2017-Nov-12 17:00N 53°25' W 003°01'3 6.2
2017-Nov-12 16:30N 53°28' W 003°03'4 7.7
2017-Nov-12 16:01N 53°31' W 003°07'4 7.7
2017-Nov-12 15:30N 53°31' W 003°13'5 9.3
2017-Nov-12 15:00N 53°31' W 003°21'510.4
2017-Nov-12 14:30N 53°31' W 003°30'510.6
2017-Nov-12 14:00N 53°31' W 003°38'612.6
2017-Nov-12 13:30N 53°32' W 003°49'510.6
2017-Nov-12 13:00N 53°33' W 003°58'40 9.6
2017-Nov-12 08:48N 54°11' W 004°19'2 3.2
2017-Nov-12 08:19N 54°12' W 004°17'2 2.9
2017-Nov-12 07:38N 54°13' W 004°15'1 2.6
2017-Nov-12 07:25N 54°14' W 004°14'1 0.8
2017-Nov-12 06:33N 54°14' W 004°14'1 1.8
2017-Nov-12 06:15N 54°14' W 004°14'0 1.6
2017-Nov-12 05:58N 54°13' W 004°14'1 1.9
2017-Nov-12 05:26N 54°13' W 004°15'1 1.9
2017-Nov-12 04:58N 54°12' W 004°16'4 2.8
2017-Nov-12 03:28N 54°08' W 004°19'8 4.0
2017-Nov-12 01:32N 54°02' W 004°27'0 6.3
2017-Nov-12 01:30N 54°02' W 004°27'26 1.7
2017-Nov-11 10:30N 54°07' W 005°10'4 7.7
2017-Nov-11 10:00N 54°11' W 005°08'4 7.6
2017-Nov-11 09:30N 54°15' W 005°06'4 7.6
2017-Nov-11 09:00N 54°18' W 005°04'4 8.0
2017-Nov-11 08:30N 54°22' W 005°02'612.3
2017-Nov-11 08:00N 54°28' W 005°05'612.5
2017-Nov-11 07:31N 54°33' W 005°11'612.2
2017-Nov-11 07:00N 54°38' W 005°17'612.0
2017-Nov-11 06:31N 54°43' W 005°23'611.4
2017-Nov-11 06:00N 54°45' W 005°32'713.1
2017-Nov-11 05:30N 54°42' W 005°42'612.3
2017-Nov-11 05:00N 54°39' W 005°52'3 5.1
2017-Nov-11 04:26N 54°37' W 005°55'0 0.0
2017-Nov-10 22:19N 54°37' W 005°55'0 0.0
2017-Nov-10 20:44N 54°37' W 005°55'0 0.1
2017-Nov-10 20:29N 54°37' W 005°55'1 1.9
2017-Nov-10 19:59N 54°37' W 005°54'3 5.3
2017-Nov-10 19:30N 54°39' W 005°51'510.0
2017-Nov-10 19:01N 54°42' W 005°44'3 6.9
2017-Nov-10 18:30N 54°44' W 005°39'2 4.9
2017-Nov-10 18:00N 54°46' W 005°38'2 3.7
2017-Nov-10 17:31N 54°48' W 005°37'3 2.0
2017-Nov-10 15:54N 54°45' W 005°36'1 1.3
2017-Nov-10 15:20N 54°44' W 005°37'1 1.3
2017-Nov-10 14:50N 54°43' W 005°37'1 3.9
2017-Nov-10 14:30N 54°44' W 005°35'510.8
2017-Nov-10 14:00N 54°46' W 005°26'510.1
2017-Nov-10 13:30N 54°42' W 005°21'510.4
2017-Nov-10 13:00N 54°38' W 005°15'510.5
2017-Nov-10 12:30N 54°33' W 005°10'5 9.7
2017-Nov-10 12:00N 54°29' W 005°06'510.7
2017-Nov-10 11:30N 54°24' W 005°08'611.1
2017-Nov-10 11:00N 54°18' W 005°09'611.5
2017-Nov-10 10:30N 54°12' W 005°11'16312.7
2017-Nov-09 21:36N 51°31' W 005°53'113.6
2017-Nov-09 21:30N 51°30' W 005°53'4813.1
2017-Nov-09 17:51N 50°42' W 005°55'613.0
2017-Nov-09 17:21N 50°35' W 005°56'812.8
2017-Nov-09 16:43N 50°27' W 005°57'312.1
2017-Nov-09 16:27N 50°24' W 005°56'512.0
2017-Nov-09 15:59N 50°19' W 005°55'612.7
2017-Nov-09 15:30N 50°12' W 005°55'1312.5
2017-Nov-09 14:27N 49°59' W 005°55'1212.3
2017-Nov-09 13:27N 49°56' W 005°36'1813.0
2017-Nov-09 12:05N 49°54' W 005°09'313.0
2017-Nov-09 11:50N 49°54' W 005°04'412.9
2017-Nov-09 11:30N 49°55' W 004°57'712.7
2017-Nov-09 10:57N 49°55' W 004°46'1012.4
2017-Nov-09 10:10N 49°56' W 004°31'212.2
2017-Nov-09 10:00N 49°56' W 004°28'811.7
2017-Nov-09 09:18N 49°57' W 004°15'411.7
2017-Nov-09 08:56N 49°57' W 004°09'  

Dump ship's entire track history